Time;durP1;ratioP1;P1;durP2;ratioP2;P2;SDS_P1;SDS_P2;PMS_P1;PMS_P2;Temp;Humidity;BMP_temperature;BMP_pressure;BME280_temperature;BME280_humidity;BME280_pressure;Samples;Min_cycle;Max_cycle;Signal;HPM_P1;HPM_P2
2023/10/02 00:02:40;;;;;;;23.77;11.55;;;18.70;99.90;;;;;;5095291;28;20032;-76
2023/10/02 00:05:05;;;;;;;25.40;12.77;;;18.70;99.90;;;;;;5095498;28;20038;-76
2023/10/02 00:07:35;;;;;;;19.52;10.52;;;18.70;99.90;;;;;;5077245;28;20020;-76
2023/10/02 00:10:03;;;;;;;18.80;10.70;;;18.70;99.90;;;;;;5095070;28;20065;-76
2023/10/02 00:12:31;;;;;;;23.15;11.57;;;18.70;99.90;;;;;;5095433;28;20028;-76
2023/10/02 00:14:58;;;;;;;22.73;11.40;;;18.70;99.90;;;;;;5094902;28;20503;-77
2023/10/02 00:17:24;;;;;;;22.48;11.95;;;18.70;99.90;;;;;;5077126;28;20442;-77
2023/10/02 00:20:04;;;;;;;22.85;11.18;;;18.60;99.90;;;;;;5076752;28;20801;-76
2023/10/02 00:22:42;;;;;;;19.95;11.55;;;18.60;99.90;;;;;;5074761;28;20396;-76
2023/10/02 00:25:16;;;;;;;22.15;12.07;;;18.60;99.90;;;;;;5074612;28;20021;-76
2023/10/02 00:27:48;;;;;;;24.80;12.10;;;18.60;99.90;;;;;;5074923;28;20476;-76
2023/10/02 00:30:15;;;;;;;24.83;11.90;;;18.60;99.90;;;;;;5074460;28;20096;-77
2023/10/02 00:32:45;;;;;;;21.05;11.70;;;18.60;99.90;;;;;;5055885;28;20021;-76
2023/10/02 00:35:12;;;;;;;23.13;12.80;;;18.60;99.90;;;;;;5054936;28;20545;-77
2023/10/02 00:37:47;;;;;;;26.30;13.57;;;18.50;99.90;;;;;;5056542;28;20074;-76
2023/10/02 00:40:26;;;;;;;25.80;13.23;;;18.50;99.90;;;;;;5063211;28;20434;-76
2023/10/02 00:42:56;;;;;;;22.33;10.60;;;18.50;99.90;;;;;;5072927;28;20427;-76
2023/10/02 00:45:30;;;;;;;23.00;11.20;;;18.40;99.90;;;;;;5072043;28;20523;-76
2023/10/02 00:48:25;;;;;;;26.83;11.48;;;18.40;99.90;;;;;;5074576;28;20071;-76
2023/10/02 00:50:54;;;;;;;23.60;11.02;;;18.40;99.90;;;;;;5086455;28;20032;-76
2023/10/02 00:53:37;;;;;;;20.95;10.82;;;18.40;99.90;;;;;;5075753;28;20035;-76
2023/10/02 00:56:19;;;;;;;22.33;11.02;;;18.30;99.90;;;;;;5093988;28;20016;-76
2023/10/02 00:58:48;;;;;;;22.33;12.15;;;18.30;99.90;;;;;;5076122;28;20039;-76
2023/10/02 01:01:14;;;;;;;20.98;11.20;;;18.30;99.90;;;;;;5075819;28;20081;-76
2023/10/02 01:04:08;;;;;;;25.98;11.93;;;18.30;99.90;;;;;;5076010;28;20024;-77
2023/10/02 01:06:26;;;;;;;23.55;11.40;;;18.30;99.90;;;;;;5094180;28;20070;-76
2023/10/02 01:08:52;;;;;;;24.02;10.82;;;18.40;99.90;;;;;;5073943;28;20024;-76
2023/10/02 01:11:20;;;;;;;21.95;11.13;;;18.30;99.90;;;;;;5076415;28;20026;-77
2023/10/02 01:13:46;;;;;;;22.23;11.75;;;18.30;99.90;;;;;;5075713;28;20077;-76
2023/10/02 01:16:17;;;;;;;22.17;10.40;;;18.30;99.90;;;;;;5075075;28;20024;-76
2023/10/02 01:18:48;;;;;;;19.45;10.23;;;18.30;99.90;;;;;;5082943;28;20028;-76
2023/10/02 01:21:14;;;;;;;20.20;10.07;;;18.20;99.90;;;;;;5092346;28;20647;-76
2023/10/02 01:26:37;;;;;;;22.90;10.40;;;18.20;99.90;;;;;;5094018;28;20035;-76
2023/10/02 01:29:06;;;;;;;18.73;10.30;;;18.20;99.90;;;;;;5075883;28;20476;-77
2023/10/02 01:31:36;;;;;;;21.42;11.02;;;18.20;99.90;;;;;;5074484;28;20085;-76
2023/10/02 01:34:02;;;;;;;22.85;10.85;;;18.20;99.90;;;;;;5075537;28;20466;-76
2023/10/02 01:36:33;;;;;;;17.67;10.63;;;18.20;99.90;;;;;;5093425;28;20028;-76
2023/10/02 01:39:15;;;;;;;19.42;10.60;;;18.10;99.90;;;;;;5075164;28;20031;-76
2023/10/02 01:41:42;;;;;;;;;;;18.10;99.90;;;;;;5075675;28;20069;-77
2023/10/02 01:44:11;;;;;;;17.63;9.20;;;18.10;99.90;;;;;;5093518;28;19903;-76
2023/10/02 01:46:50;;;;;;;22.00;9.50;;;18.10;99.90;;;;;;5074870;28;20024;-76
2023/10/02 01:49:26;;;;;;;23.63;10.18;;;18.10;99.90;;;;;;5076932;28;20383;-77
2023/10/02 01:52:07;;;;;;;19.05;9.93;;;18.00;99.90;;;;;;5091597;28;20032;-76
2023/10/02 01:54:34;;;;;;;19.98;9.90;;;18.00;99.90;;;;;;5092058;28;20442;-76
2023/10/02 01:57:00;;;;;;;26.52;9.85;;;18.00;99.90;;;;;;5091625;28;20032;-77
2023/10/02 01:59:26;;;;;;;19.35;10.23;;;18.00;99.90;;;;;;5092108;28;20085;-77
2023/10/02 02:01:56;;;;;;;20.13;10.30;;;18.00;99.90;;;;;;5092262;28;20036;-77
2023/10/02 02:04:28;;;;;;;21.25;9.75;;;18.00;99.90;;;;;;5093145;28;20024;-77
2023/10/02 02:06:56;;;;;;;17.83;9.75;;;18.00;99.90;;;;;;5079858;28;20431;-76
2023/10/02 02:09:43;;;;;;;19.58;10.52;;;17.90;99.90;;;;;;5074781;28;20027;-77
2023/10/02 02:12:10;;;;;;;18.70;10.15;;;18.00;99.90;;;;;;5074380;28;20027;-77
2023/10/02 02:14:50;;;;;;;16.88;9.30;;;18.00;99.90;;;;;;5073436;28;20502;-77
2023/10/02 02:17:21;;;;;;;20.05;10.05;;;17.90;99.90;;;;;;5074595;28;20491;-77
2023/10/02 02:19:50;;;;;;;18.90;9.32;;;17.90;99.90;;;;;;5074916;28;20033;-76
2023/10/02 02:22:25;;;;;;;18.48;9.73;;;17.90;99.90;;;;;;5056068;28;20111;-76
2023/10/02 02:25:00;;;;;;;21.98;10.43;;;17.80;99.90;;;;;;5071437;28;20085;-78
2023/10/02 02:27:27;;;;;;;22.35;9.80;;;17.80;99.90;;;;;;5054438;28;20387;-77
2023/10/02 02:29:56;;;;;;;20.95;10.70;;;17.80;99.90;;;;;;5054685;28;20585;-77
2023/10/02 02:35:09;;;;;;;25.70;12.25;;;17.80;99.90;;;;;;5072757;28;20063;-77
2023/10/02 02:37:35;;;;;;;25.60;12.40;;;17.80;99.90;;;;;;5072456;28;20049;-77
2023/10/02 02:40:23;;;;;;;22.55;10.70;;;17.80;99.90;;;;;;5054602;28;20017;-77
2023/10/02 02:42:52;;;;;;;22.40;10.82;;;17.80;99.90;;;;;;5076425;28;20029;-77
2023/10/02 02:45:28;;;;;;;22.10;10.98;;;17.80;99.90;;;;;;5059609;28;20040;-77
2023/10/02 02:48:05;;;;;;;22.55;11.23;;;17.70;99.90;;;;;;5078141;28;20035;-77
2023/10/02 02:50:35;;;;;;;18.20;10.15;;;17.80;99.90;;;;;;5057511;28;20020;-77
2023/10/02 02:56:18;;;;;;;18.23;9.60;;;17.70;99.90;;;;;;5074300;28;20067;-78
2023/10/02 02:58:52;;;;;;;24.65;10.35;;;17.70;99.90;;;;;;5104127;28;20027;-77
2023/10/02 03:01:23;;;;;;;20.58;10.10;;;17.70;99.90;;;;;;5074134;28;20031;-77
2023/10/02 03:03:56;;;;;;;20.50;9.70;;;17.80;99.90;;;;;;5092365;28;20721;-77
2023/10/02 03:06:22;;;;;;;23.65;11.20;;;17.80;99.90;;;;;;5074278;28;20013;-77
2023/10/02 03:08:51;;;;;;;19.55;10.27;;;17.70;99.90;;;;;;5092101;28;20024;-76
2023/10/02 03:11:19;;;;;;;18.55;9.93;;;17.70;99.90;;;;;;5074090;28;20059;-76
2023/10/02 03:13:49;;;;;;;23.05;11.05;;;17.70;99.90;;;;;;5073950;28;20024;-76
2023/10/02 03:16:18;;;;;;;22.33;11.23;;;17.70;99.90;;;;;;5100245;28;20022;-76
2023/10/02 03:18:48;;;;;;;20.55;9.85;;;17.70;99.90;;;;;;5116134;28;20198;-77
2023/10/02 03:21:24;;;;;;;22.92;11.02;;;17.70;99.90;;;;;;5115501;28;20263;-76
2023/10/02 03:23:54;;;;;;;24.52;10.20;;;17.70;99.90;;;;;;5097725;28;20022;-77
2023/10/02 03:29:02;;;;;;;22.75;11.40;;;17.70;99.90;;;;;;5095973;28;20032;-77
2023/10/02 03:31:51;;;;;;;26.98;12.73;;;17.70;99.90;;;;;;5095942;28;20031;-77
2023/10/02 03:34:33;;;;;;;23.90;12.68;;;17.60;99.90;;;;;;5095685;28;20105;-77
2023/10/02 03:40:20;;;;;;;24.40;12.32;;;17.60;99.90;;;;;;5096218;28;20400;-77
2023/10/02 03:42:39;;;;;;;20.25;11.52;;;17.60;99.90;;;;;;5092572;28;20067;-78
2023/10/02 03:45:06;;;;;;;21.77;10.40;;;17.60;99.90;;;;;;5094367;28;20552;-77
2023/10/02 03:47:35;;;;;;;20.45;11.93;;;17.60;99.90;;;;;;5095658;28;20079;-76
2023/10/02 03:50:01;;;;;;;24.33;11.35;;;17.60;99.90;;;;;;5097836;28;20023;-77
2023/10/02 03:52:29;;;;;;;21.25;10.73;;;17.60;99.90;;;;;;5097394;28;20383;-78
2023/10/02 03:54:55;;;;;;;28.77;12.55;;;17.60;99.90;;;;;;5086909;28;20387;-76
2023/10/02 03:57:47;;;;;;;24.65;11.52;;;17.60;99.90;;;;;;5090534;28;20024;-77
2023/10/02 04:02:47;;;;;;;;;;;17.50;99.90;;;;;;5075545;28;20052;-77
2023/10/02 04:08:37;;;;;;;21.55;11.45;;;17.60;99.90;;;;;;5013097;28;20040;-76
2023/10/02 04:11:03;;;;;;;26.50;10.82;;;17.60;99.90;;;;;;5012578;28;20026;-77
2023/10/02 04:13:34;;;;;;;22.60;11.88;;;17.60;99.90;;;;;;5040635;28;20033;-76
2023/10/02 04:19:23;;;;;;;27.08;12.48;;;17.50;99.90;;;;;;5094327;28;20086;-76
2023/10/02 04:21:37;;;;;;;24.10;12.73;;;17.60;99.90;;;;;;5092966;28;20035;-77
2023/10/02 04:24:09;;;;;;;27.25;14.00;;;17.50;99.90;;;;;;5093065;28;20024;-76
2023/10/02 04:26:36;;;;;;;28.40;13.82;;;17.60;99.90;;;;;;5093766;28;20041;-76
2023/10/02 04:32:04;;;;;;;28.20;13.85;;;17.50;99.90;;;;;;5091292;28;20043;-77
2023/10/02 04:34:31;;;;;;;28.80;14.68;;;17.50;99.90;;;;;;5072174;28;20118;-77
2023/10/02 04:36:57;;;;;;;29.90;14.77;;;17.40;99.90;;;;;;5093957;28;20054;-77
2023/10/02 04:42:11;;;;;;;24.30;12.77;;;17.40;99.90;;;;;;5094933;28;20020;-77
2023/10/02 04:44:44;;;;;;;24.55;12.50;;;17.40;99.90;;;;;;5076568;28;20024;-77
2023/10/02 04:47:17;;;;;;;27.85;14.27;;;17.50;99.90;;;;;;5093612;28;20031;-77
2023/10/02 04:55:19;;;;;;;26.70;13.73;;;17.40;99.90;;;;;;5074381;28;20522;-76
2023/10/02 04:57:45;;;;;;;30.33;14.30;;;17.40;99.90;;;;;;5056647;28;20030;-76
2023/10/02 05:00:26;;;;;;;30.67;13.95;;;17.40;99.90;;;;;;5072145;28;20115;-77
2023/10/02 05:03:09;;;;;;;27.05;13.63;;;17.30;99.90;;;;;;5056108;28;20115;-77
2023/10/02 05:05:49;;;;;;;27.30;13.90;;;17.40;99.90;;;;;;5055471;28;20102;-76
2023/10/02 05:08:34;;;;;;;27.38;13.77;;;17.40;99.90;;;;;;5074376;28;20052;-76
2023/10/02 05:11:07;;;;;;;28.33;13.35;;;17.30;99.90;;;;;;5073380;28;20130;-77
2023/10/02 05:13:45;;;;;;;30.77;15.35;;;17.30;99.90;;;;;;5056497;28;20040;-76
2023/10/02 05:16:13;;;;;;;25.98;14.32;;;17.20;99.90;;;;;;5059425;28;20027;-77
2023/10/02 05:18:44;;;;;;;33.10;15.48;;;17.20;99.90;;;;;;5094060;28;20027;-76
2023/10/02 05:21:11;;;;;;;31.52;15.25;;;17.20;99.90;;;;;;5091461;28;20050;-77
2023/10/02 05:23:38;;;;;;;27.70;14.88;;;17.20;99.90;;;;;;5075129;28;20480;-77
2023/10/02 05:26:04;;;;;;;31.50;14.57;;;17.20;99.90;;;;;;5094405;28;20430;-76
2023/10/02 05:28:42;;;;;;;28.50;14.77;;;17.20;99.90;;;;;;5094451;28;20054;-76
2023/10/02 05:31:11;;;;;;;28.52;13.65;;;17.20;99.90;;;;;;5075372;28;20027;-77
2023/10/02 05:33:37;;;;;;;31.88;14.60;;;17.20;99.90;;;;;;5076513;28;20028;-77
2023/10/02 05:36:08;;;;;;;27.15;14.10;;;17.20;99.90;;;;;;5074856;28;20075;-77
2023/10/02 05:38:34;;;;;;;29.20;15.43;;;17.20;99.90;;;;;;5093136;28;20024;-76
2023/10/02 05:41:01;;;;;;;29.67;14.25;;;17.20;99.90;;;;;;5075438;28;20103;-77
2023/10/02 05:43:31;;;;;;;32.72;16.10;;;17.20;99.90;;;;;;5075049;28;20032;-79
2023/10/02 05:45:57;;;;;;;30.23;15.60;;;17.20;99.90;;;;;;5091996;28;20027;-77
2023/10/02 05:50:57;;;;;;;31.48;15.88;;;17.20;99.90;;;;;;5093461;28;20124;-77
2023/10/02 05:53:34;;;;;;;29.77;14.88;;;17.20;99.90;;;;;;5093000;28;20047;-78
2023/10/02 05:56:12;;;;;;;29.25;14.60;;;17.20;99.90;;;;;;5075030;28;20048;-77
2023/10/02 05:58:41;;;;;;;27.02;13.82;;;17.20;99.90;;;;;;5076288;28;20075;-77
2023/10/02 06:01:26;;;;;;;36.20;16.83;;;17.20;99.90;;;;;;5054983;28;20077;-77
2023/10/02 06:04:01;;;;;;;29.90;15.23;;;17.10;99.90;;;;;;5060858;28;20028;-76
2023/10/02 06:06:35;;;;;;;28.33;14.05;;;17.10;99.90;;;;;;5073178;28;20073;-77
2023/10/02 06:09:03;;;;;;;32.00;15.70;;;17.00;99.90;;;;;;5092874;28;20024;-77
2023/10/02 06:11:33;;;;;;;31.80;15.77;;;17.00;99.90;;;;;;5074368;28;20047;-77
2023/10/02 06:14:10;;;;;;;28.77;14.63;;;17.00;99.90;;;;;;5091735;28;20058;-77
2023/10/02 06:16:40;;;;;;;25.20;14.88;;;17.00;99.90;;;;;;5074662;28;20027;-77
2023/10/02 06:19:13;;;;;;;31.55;15.20;;;17.00;99.90;;;;;;5092346;28;20036;-77
2023/10/02 06:21:46;;;;;;;28.90;14.73;;;17.10;99.90;;;;;;5079785;28;20020;-76
2023/10/02 06:24:16;;;;;;;33.88;15.02;;;17.10;99.90;;;;;;5071409;28;20051;-77
2023/10/02 06:26:58;;;;;;;37.03;15.40;;;17.10;99.90;;;;;;5054840;28;20025;-77
2023/10/02 06:29:37;;;;;;;28.67;14.75;;;17.10;99.90;;;;;;5054817;28;20077;-77
2023/10/02 06:32:11;;;;;;;30.75;14.98;;;17.10;99.90;;;;;;5054861;28;20388;-77
2023/10/02 06:34:39;;;;;;;29.33;15.05;;;17.10;99.90;;;;;;5053919;28;20131;-77
2023/10/02 06:37:11;;;;;;;29.88;15.30;;;17.20;99.90;;;;;;5054493;28;20467;-77
2023/10/02 06:39:43;;;;;;;31.15;14.77;;;17.20;99.90;;;;;;5053095;28;20445;-78
2023/10/02 06:42:19;;;;;;;25.27;14.05;;;17.20;99.90;;;;;;5054499;28;20024;-76
2023/10/02 06:44:54;;;;;;;32.83;15.45;;;17.20;99.90;;;;;;5071485;28;20024;-77
2023/10/02 06:47:22;;;;;;;30.52;15.45;;;17.30;99.90;;;;;;5072406;28;20116;-76
2023/10/02 06:49:51;;;;;;;35.67;14.90;;;17.20;99.90;;;;;;5054018;28;20028;-78
2023/10/02 06:52:20;;;;;;;28.52;13.85;;;17.20;99.90;;;;;;5054079;28;20025;-77
2023/10/02 06:54:49;;;;;;;29.67;14.93;;;17.20;99.90;;;;;;5071207;28;20032;-77
2023/10/02 06:57:20;;;;;;;33.08;14.45;;;17.30;99.90;;;;;;5053881;28;20028;-77
2023/10/02 06:59:53;;;;;;;29.83;14.90;;;17.30;99.90;;;;;;5060075;28;20085;-77
2023/10/02 07:02:20;;;;;;;31.48;14.27;;;17.40;99.90;;;;;;5063852;28;20439;-78
2023/10/02 07:04:48;;;;;;;28.45;15.25;;;17.40;99.90;;;;;;5089763;28;20039;-79
2023/10/02 07:07:15;;;;;;;29.40;14.60;;;17.40;99.90;;;;;;5092009;28;20012;-77
2023/10/02 07:09:41;;;;;;;25.20;13.35;;;17.50;99.90;;;;;;5070949;28;20020;-82
2023/10/02 07:12:13;;;;;;;29.25;15.07;;;17.60;99.90;;;;;;5074132;28;20020;-79
2023/10/02 07:14:41;;;;;;;28.25;13.75;;;17.60;99.90;;;;;;5072344;28;20036;-77
2023/10/02 07:17:16;;;;;;;32.67;15.00;;;17.70;99.90;;;;;;5073881;28;20107;-78
2023/10/02 07:19:50;;;;;;;26.33;13.73;;;17.70;99.90;;;;;;5074207;28;20024;-77
2023/10/02 07:22:25;;;;;;;30.70;13.82;;;17.80;99.90;;;;;;5074011;28;20028;-77
2023/10/02 07:24:57;;;;;;;27.13;14.13;;;17.80;99.90;;;;;;5092281;28;20074;-77
2023/10/02 07:27:27;;;;;;;28.73;15.13;;;17.90;99.90;;;;;;5092094;28;20137;-77
2023/10/02 07:29:54;;;;;;;31.88;13.15;;;17.90;99.90;;;;;;5072753;28;20024;-77
2023/10/02 07:32:21;;;;;;;27.52;13.70;;;18.00;99.90;;;;;;5090174;28;20028;-78
2023/10/02 07:34:48;;;;;;;28.50;14.02;;;18.00;99.90;;;;;;5074373;28;20039;-77
2023/10/02 07:37:21;;;;;;;23.35;12.73;;;18.00;99.90;;;;;;5074547;28;20253;-77
2023/10/02 07:39:56;;;;;;;;;;;18.10;99.90;;;;;;5067898;28;20112;-77
2023/10/02 07:42:28;;;;;;;29.80;14.38;;;18.10;99.90;;;;;;5062802;28;19918;-77
2023/10/02 07:45:11;;;;;;;28.95;15.00;;;18.30;99.90;;;;;;5070239;28;20086;-77
2023/10/02 07:47:55;;;;;;;;;;;18.40;99.90;;;;;;5097668;28;20049;-77
2023/10/02 07:50:33;;;;;;;27.88;14.57;;;18.50;99.90;;;;;;5112607;28;20290;-78
2023/10/02 07:53:01;;;;;;;29.48;14.73;;;18.50;99.90;;;;;;5111754;28;20052;-77
2023/10/02 07:55:27;;;;;;;30.35;14.75;;;18.60;99.90;;;;;;5084461;28;20111;-77
2023/10/02 07:58:00;;;;;;;27.77;14.57;;;18.60;99.90;;;;;;5073339;28;20042;-79
2023/10/02 08:00:38;;;;;;;27.90;14.88;;;18.70;99.90;;;;;;5081538;28;20067;-76
2023/10/02 08:03:36;;;;;;;34.20;16.13;;;18.80;99.90;;;;;;5066391;28;20026;-77
2023/10/02 08:06:21;;;;;;;31.75;15.68;;;18.90;99.90;;;;;;5072481;28;20035;-77
2023/10/02 08:11:39;;;;;;;28.80;14.82;;;19.10;99.90;;;;;;5088978;28;20066;-77
2023/10/02 08:14:34;;;;;;;31.95;16.33;;;19.20;99.90;;;;;;5105516;28;20027;-77
2023/10/02 08:17:00;;;;;;;27.80;14.70;;;19.30;99.90;;;;;;5094911;28;20092;-77
2023/10/02 08:19:27;;;;;;;28.07;14.33;;;19.40;99.90;;;;;;5075814;28;20080;-77
2023/10/02 08:21:53;;;;;;;30.27;15.93;;;19.50;99.90;;;;;;5077066;28;20464;-77
2023/10/02 08:24:20;;;;;;;30.80;13.95;;;19.60;99.90;;;;;;5074624;28;20021;-77
2023/10/02 08:26:47;;;;;;;33.25;14.30;;;19.70;99.90;;;;;;5077237;28;20391;-78
2023/10/02 08:29:18;;;;;;;30.15;15.07;;;19.70;99.90;;;;;;5077098;28;20024;-77
2023/10/02 08:31:48;;;;;;;24.17;13.85;;;19.70;99.90;;;;;;5076819;28;20399;-77
2023/10/02 08:34:19;;;;;;;30.42;14.32;;;19.80;99.90;;;;;;5113129;28;20586;-77
2023/10/02 08:36:47;;;;;;;28.60;14.70;;;19.80;99.90;;;;;;5094985;28;20040;-77
2023/10/02 08:39:19;;;;;;;28.73;13.75;;;19.90;99.90;;;;;;5096906;28;20513;-77
2023/10/02 08:41:45;;;;;;;29.13;14.15;;;20.00;99.90;;;;;;5077210;28;20060;-77
2023/10/02 08:44:14;;;;;;;28.55;14.30;;;20.00;99.90;;;;;;5075429;28;20050;-77
2023/10/02 08:46:43;;;;;;;25.40;13.27;;;20.10;99.90;;;;;;5073919;28;20031;-77
2023/10/02 08:49:11;;;;;;;27.85;13.77;;;20.20;99.90;;;;;;5082724;28;20024;-77
2023/10/02 08:51:38;;;;;;;27.80;14.40;;;20.20;99.90;;;;;;5076325;28;20031;-77
2023/10/02 08:54:05;;;;;;;39.40;15.10;;;20.30;99.90;;;;;;5099631;28;20032;-78
2023/10/02 08:56:45;;;;;;;27.42;13.00;;;20.40;99.90;;;;;;5082342;28;20028;-77
2023/10/02 08:59:35;;;;;;;33.65;15.15;;;20.50;99.90;;;;;;5098278;28;20020;-76
2023/10/02 09:02:14;;;;;;;31.85;14.73;;;20.60;99.90;;;;;;5080815;28;20026;-78
2023/10/02 09:04:51;;;;;;;28.23;14.27;;;20.70;99.90;;;;;;5081567;28;20103;-78
2023/10/02 09:07:45;;;;;;;29.50;13.52;;;20.80;99.90;;;;;;5080155;28;20487;-77
2023/10/02 09:10:24;;;;;;;28.52;13.55;;;21.00;99.90;;;;;;5095079;28;20020;-77
2023/10/02 09:13:13;;;;;;;26.77;13.27;;;21.00;99.90;;;;;;5080582;28;20032;-77
2023/10/02 09:15:53;;;;;;;28.52;13.07;;;21.20;99.90;;;;;;5098671;28;20024;-76
2023/10/02 09:21:21;;;;;;;27.60;14.55;;;21.50;99.90;;;;;;5097270;28;20042;-77
2023/10/02 09:23:51;;;;;;;30.10;15.05;;;21.70;99.90;;;;;;5081302;28;20110;-77
2023/10/02 09:26:17;;;;;;;27.08;14.18;;;21.80;99.90;;;;;;5075519;28;20016;-76
2023/10/02 09:28:47;;;;;;;26.88;14.02;;;21.90;99.90;;;;;;5076392;28;20498;-78
2023/10/02 09:31:15;;;;;;;29.33;13.43;;;22.10;99.90;;;;;;5095236;28;20426;-77
2023/10/02 09:33:46;;;;;;;30.70;14.75;;;22.20;99.90;;;;;;5079410;28;20027;-77
2023/10/02 09:36:19;;;;;;;28.58;14.00;;;22.30;99.90;;;;;;5076210;28;20490;-76
2023/10/02 09:38:46;;;;;;;24.95;13.73;;;22.30;99.90;;;;;;5083338;28;20394;-77
2023/10/02 09:41:20;;;;;;;27.30;14.05;;;22.30;99.90;;;;;;5098391;28;20051;-76
2023/10/02 09:43:49;;;;;;;24.27;13.98;;;22.40;99.90;;;;;;5078830;28;20027;-78
2023/10/02 09:46:15;;;;;;;27.33;14.40;;;22.50;99.90;;;;;;5078665;28;20082;-77
2023/10/02 09:48:57;;;;;;;28.52;13.75;;;22.50;99.90;;;;;;5097395;28;20008;-78
2023/10/02 09:51:26;;;;;;;25.65;14.15;;;22.70;99.90;;;;;;5074569;28;20028;-77
2023/10/02 09:54:28;;;;;;;31.70;15.65;;;22.60;99.90;;;;;;5079556;28;20036;-77
2023/10/02 09:57:06;;;;;;;27.25;14.25;;;22.70;99.90;;;;;;5071366;28;20051;-76
2023/10/02 09:59:45;;;;;;;26.08;13.85;;;22.60;99.90;;;;;;5096241;28;20039;-77
2023/10/02 10:10:48;;;;;;;28.77;15.07;;;22.70;99.90;;;;;;5082280;28;20032;-77
2023/10/02 10:13:32;;;;;;;31.02;14.23;;;22.80;99.90;;;;;;5090175;28;20028;-77
2023/10/02 10:16:19;;;;;;;24.98;13.48;;;22.90;99.90;;;;;;5072256;28;20063;-77
2023/10/02 10:22:04;;;;;;;28.13;13.57;;;22.90;99.90;;;;;;5089146;28;20097;-77
2023/10/02 10:24:37;;;;;;;28.63;14.15;;;23.00;99.90;;;;;;5073005;28;20031;-77
2023/10/02 10:27:03;;;;;;;;;;;23.00;99.90;;;;;;5072553;28;20081;-74
2023/10/02 10:29:41;;;;;;;27.80;14.15;;;23.10;99.90;;;;;;5075390;28;19907;-77
2023/10/02 10:32:23;;;;;;;29.50;14.43;;;23.20;99.90;;;;;;5072028;28;20032;-77
2023/10/02 10:35:17;;;;;;;25.63;13.73;;;23.20;99.90;;;;;;5082811;28;20058;-77
2023/10/02 10:37:47;;;;;;;30.35;15.32;;;23.20;99.90;;;;;;5073842;28;20032;-77
2023/10/02 10:40:44;;;;;;;31.77;14.40;;;23.20;99.90;;;;;;5071051;28;20039;-74
2023/10/02 10:43:14;;;;;;;26.83;14.05;;;23.30;99.90;;;;;;5076876;28;20044;-78
2023/10/02 10:45:41;;;;;;;25.50;13.32;;;23.40;99.90;;;;;;5063996;28;20502;-76
2023/10/02 10:48:21;;;;;;;24.88;12.93;;;23.50;99.90;;;;;;5071285;28;20103;-76
2023/10/02 10:51:03;;;;;;;28.75;14.80;;;23.50;99.90;;;;;;5065283;28;20024;-76
2023/10/02 10:53:30;;;;;;;28.67;14.77;;;23.40;99.90;;;;;;5071779;28;20072;-76
2023/10/02 10:56:16;;;;;;;28.02;14.57;;;23.60;99.90;;;;;;5069736;28;20017;-76
2023/10/02 10:58:44;;;;;;;25.52;14.00;;;23.70;99.90;;;;;;5072812;28;20028;-75
2023/10/02 11:01:13;;;;;;;26.83;14.50;;;23.70;99.90;;;;;;5072633;28;20016;-77
2023/10/02 11:03:40;;;;;;;29.90;14.80;;;23.70;99.90;;;;;;5084389;28;20042;-77
2023/10/02 11:06:06;;;;;;;28.88;14.25;;;23.80;99.90;;;;;;5074235;28;20096;-76
2023/10/02 11:08:37;;;;;;;27.15;14.15;;;23.80;99.90;;;;;;5087266;28;20103;-75
2023/10/02 11:11:19;;;;;;;25.95;13.82;;;23.90;99.90;;;;;;5064597;28;20472;-75
2023/10/02 11:14:00;;;;;;;25.15;13.27;;;23.90;99.90;;;;;;5083046;28;20544;-76
2023/10/02 11:16:36;;;;;;;25.30;13.30;;;23.90;99.90;;;;;;5066583;28;20039;-75
2023/10/02 11:19:11;;;;;;;26.48;14.27;;;23.90;99.90;;;;;;5088908;28;20020;-75
2023/10/02 11:21:46;;;;;;;25.40;14.98;;;24.00;99.90;;;;;;5073870;28;20024;-76
2023/10/02 11:24:22;;;;;;;29.00;14.27;;;24.10;99.90;;;;;;5089256;28;20031;-77
2023/10/02 11:26:48;;;;;;;32.10;15.07;;;24.10;99.90;;;;;;5088151;28;20023;-75
2023/10/02 11:29:20;;;;;;;30.85;14.40;;;24.10;99.90;;;;;;5069770;28;20020;-76
2023/10/02 11:35:05;;;;;;;27.17;13.93;;;24.00;99.90;;;;;;5068033;28;20032;-76
2023/10/02 11:37:33;;;;;;;26.42;13.52;;;24.20;99.90;;;;;;5076945;28;20483;-77
2023/10/02 11:40:00;;;;;;;28.85;13.75;;;24.20;99.90;;;;;;5074238;28;20015;-76
2023/10/02 11:42:26;;;;;;;25.27;13.65;;;24.40;99.90;;;;;;5069773;28;20097;-76
2023/10/02 11:44:53;;;;;;;30.00;16.40;;;24.40;99.90;;;;;;5086270;28;20038;-76
2023/10/02 11:47:20;;;;;;;25.02;12.18;;;24.30;99.90;;;;;;5073335;28;20008;-77
2023/10/02 11:49:46;;;;;;;25.50;12.98;;;24.30;99.90;;;;;;5073239;28;20024;-76
2023/10/02 11:52:12;;;;;;;24.38;13.85;;;24.40;99.90;;;;;;5071417;28;20429;-76
2023/10/02 11:54:39;;;;;;;30.08;15.02;;;24.40;99.90;;;;;;5067652;28;20032;-77
2023/10/02 11:57:09;;;;;;;26.38;13.07;;;24.50;99.90;;;;;;5076268;28;20073;-75
2023/10/02 11:59:37;;;;;;;26.30;13.63;;;24.60;99.90;;;;;;5094269;28;20028;-75
2023/10/02 12:02:04;;;;;;;25.10;14.32;;;24.80;99.90;;;;;;5074195;28;20447;-76
2023/10/02 12:04:31;;;;;;;25.75;14.00;;;24.80;99.90;;;;;;5100416;28;20407;-75
2023/10/02 12:06:58;;;;;;;24.23;13.55;;;24.90;99.90;;;;;;5098345;28;20112;-76
2023/10/02 12:09:25;;;;;;;26.75;13.77;;;25.00;99.90;;;;;;5075418;28;20027;-76
2023/10/02 12:11:51;;;;;;;26.27;14.27;;;25.00;99.90;;;;;;5073974;28;20020;-76
2023/10/02 12:14:17;;;;;;;27.17;14.60;;;25.20;99.90;;;;;;5083622;28;20035;-77
2023/10/02 12:16:43;;;;;;;26.23;13.95;;;25.20;99.90;;;;;;5090735;28;20039;-77
2023/10/02 12:19:10;;;;;;;24.42;13.38;;;25.40;99.90;;;;;;5066632;28;20020;-76
2023/10/02 12:21:36;;;;;;;24.52;14.32;;;25.20;99.90;;;;;;5076613;28;20032;-77
2023/10/02 12:24:04;;;;;;;22.73;13.40;;;25.20;99.90;;;;;;5094349;28;20042;-77
2023/10/02 12:26:30;;;;;;;23.77;13.23;;;25.20;99.90;;;;;;5073287;28;20032;-77
2023/10/02 12:28:56;;;;;;;25.80;14.30;;;25.20;99.90;;;;;;5069647;28;20008;-76
2023/10/02 12:31:23;;;;;;;26.02;13.10;;;25.20;99.90;;;;;;5080575;28;20479;-76
2023/10/02 12:33:56;;;;;;;22.55;13.48;;;25.10;99.90;;;;;;5082335;28;20271;-77
2023/10/02 12:36:23;;;;;;;27.33;14.73;;;25.10;99.90;;;;;;5064958;28;20012;-76
2023/10/02 12:38:50;;;;;;;23.63;13.10;;;25.10;99.90;;;;;;5073844;28;20020;-76
2023/10/02 12:41:30;;;;;;;27.52;13.50;;;25.10;99.90;;;;;;5086198;28;20080;-77
2023/10/02 12:43:58;;;;;;;22.92;13.82;;;25.00;99.90;;;;;;5084083;28;20464;-78
2023/10/02 12:46:26;;;;;;;25.92;14.73;;;25.10;99.90;;;;;;5073470;28;20020;-76
2023/10/02 12:48:52;;;;;;;26.77;14.35;;;25.10;99.90;;;;;;5069187;28;20032;-77
2023/10/02 12:51:22;;;;;;;27.20;14.02;;;25.10;99.90;;;;;;5073995;28;20058;-76
2023/10/02 12:53:49;;;;;;;24.88;13.77;;;25.10;99.90;;;;;;5076007;28;20163;-77
2023/10/02 12:56:20;;;;;;;24.88;13.70;;;25.10;99.90;;;;;;5069143;28;20028;-77
2023/10/02 12:58:52;;;;;;;28.83;15.95;;;25.10;99.90;;;;;;5074513;28;20020;-76
2023/10/02 13:01:19;;;;;;;25.98;13.45;;;25.20;99.90;;;;;;5080238;28;20020;-76
2023/10/02 13:03:45;;;;;;;30.02;13.50;;;25.20;99.90;;;;;;5093205;28;20024;-77
2023/10/02 13:06:12;;;;;;;24.38;13.18;;;25.30;99.90;;;;;;5078492;28;20043;-77
2023/10/02 13:08:42;;;;;;;27.02;14.43;;;25.20;99.90;;;;;;5073927;28;20149;-76
2023/10/02 13:11:12;;;;;;;23.58;13.20;;;25.10;99.90;;;;;;5074195;28;20433;-76
2023/10/02 13:13:39;;;;;;;25.80;13.98;;;25.20;99.90;;;;;;5076332;28;20463;-76
2023/10/02 13:16:05;;;;;;;29.35;14.82;;;25.30;99.90;;;;;;5072968;28;20434;-76
2023/10/02 13:18:31;;;;;;;27.38;14.15;;;25.30;99.90;;;;;;5093963;28;20019;-77
2023/10/02 13:20:59;;;;;;;24.55;14.10;;;25.30;99.90;;;;;;5078656;28;20043;-76
2023/10/02 13:23:25;;;;;;;27.15;14.27;;;25.30;99.90;;;;;;5075649;28;20037;-76
2023/10/02 13:25:53;;;;;;;26.08;15.35;;;25.40;99.90;;;;;;5091121;28;20189;-77
2023/10/02 13:28:20;;;;;;;24.00;13.43;;;25.30;99.90;;;;;;5071860;28;20379;-75
2023/10/02 13:30:46;;;;;;;24.60;14.20;;;25.40;99.90;;;;;;5075866;28;20008;-76
2023/10/02 13:33:11;;;;;;;26.17;14.82;;;25.40;99.90;;;;;;5071551;28;20012;-77
2023/10/02 13:35:39;;;;;;;28.67;15.43;;;25.50;99.90;;;;;;5070636;28;20016;-77
2023/10/02 13:38:06;;;;;;;27.50;14.32;;;25.50;99.90;;;;;;5075440;28;20430;-77
2023/10/02 13:40:33;;;;;;;26.88;15.32;;;25.50;99.90;;;;;;5075003;28;20012;-77
2023/10/02 13:42:59;;;;;;;26.35;13.90;;;25.50;99.90;;;;;;5075313;28;20031;-77
2023/10/02 13:45:26;;;;;;;28.25;15.40;;;25.50;99.90;;;;;;5072484;28;20016;-76
2023/10/02 13:47:53;;;;;;;27.42;15.25;;;25.50;99.90;;;;;;5071428;28;20019;-77
2023/10/02 13:50:22;;;;;;;25.73;14.30;;;25.50;99.90;;;;;;5072298;28;20458;-76